Alykel, Russia

10:33 AM KRAT on August 30, 2015 (GMT +0700)
Alykel | | Change Station
CLOSE
Current Station
Airport
Location: Alykel,
Elevation: 574 ft
Nearby Weather Stations

Elev 574 ft 69.31 °N, 87.33 °E | Updated 33 minutes ago

Mostly Cloudy
Mostly Cloudy
41 °F
Feels Like 36 °F
N
7
Wind Variable Wind from NE

Today
High -- | Low -- °F
--% Chance of Precip.
Yesterday
High -- | Low -- °F
Precip. -- in
5:19 AM 9:00 PM
Full, 100% visible
Pressure 30.04 in
Visibility 6.2 miles
Clouds Mostly Cloudy 1100 ft
Windchill 36 °F
Dew Point 37 °F
Humidity 87%
Rainfall 0.00 in
Snow Depth Not available.
UV 1 out of 12
Pollen Not available.
Air Quality Not available.
Flu Activity Not available.
METAR UOOO 300300Z 05003MPS 9999 BKN011CB 05/03 Q1017 R01/19//57 TEMPO 0500 FG VV002 RMK QFE748
Pressure 30.04 in
Visibility 6.2 miles
Clouds Mostly Cloudy 1100 ft
Windchill 36 °F
Dew Point 37 °F
Humidity 87%
Rainfall 0.00 in
Snow Depth Not available.
UV 1 out of 12
Pollen Not available.
Air Quality Not available.
Flu Activity Not available.
METAR UOOO 300300Z 05003MPS 9999 BKN011CB 05/03 Q1017 R01/19//57 TEMPO 0500 FG VV002 RMK QFE748

10-Day Weather Forecast

×

Almanac

Astronomy

Aug. 30, 2015 Rise Set
Actual Time
Civil Twilight
Nautical Twilight
Astronomical Twilight
Moon
Length of Visible Light
Length of Day
Tomorrow will be .
, % of the Moon is Illuminated

Today's Extremes

Country Highs Country Lows

Community

WunderPhotos

Upload Photos

1,850,870 photos uploaded!

WunderBlogs® & News

Nearby

Air Quality

  Air Quality AQ Index Pollutant
Not available.

Snow Depth

Station Depth Elevation

Earthquake Activity

City Distance Mag. Time & Date
Minimum magnitude displayed is 2.5.

Coastal Water Temperatures

Place Temperature

Stations

Nearby Weather Stations

Station Location Temp. Windchill Dew Point Humidity Wind Precip. Elev Updated Type